Meath Environmental Platform

Observations for Trim Market St

Time AQI Temp °C Hum % Pres Pa CO μg/m³ H₂S μg/m³ NO μg/m³ NO₂ μg/m³ O₃ μg/m³ SO₂ μg/m³ PM1 μg/m³ PM2.5 μg/m³ PM10 μg/m³
Tuesday 14 July 2026
01:13 1 17.2 68 56,553 0.08 0 0 3.87 22.69 0 2.14 4.12 6.89
01:09 1 17.3 68 56,594 0.09 0 0 5.26 23.97 0 2.85 5.59 10.08
01:03 1 17.3 68 56,698 0.09 0 0 6.59 24.1 0 2.14 3.16 4.97
01:00 1 17.3 68 56,739 0.08 0 0 5.82 23.48 0 2.85 3.17 4.96
00:59 1 17.3 68 56,751 0.08 0 0 5.32 25.11 0 2.85 4.15 6.25
00:58 1 17.3 67 56,752 0.08 0 0.08 4.13 22.65 0 0.71 3.67 5.6
00:57 1 17.4 67 56,769 0.08 0 0 9.3 32.24 0 1.43 3.18 4.96
00:56 1 17.3 67 56,787 0.08 0 0 6.64 23.83 0 2.14 4.16 6.89
00:55 1 17.3 67 56,799 0.09 0 0 6.64 24.47 0 1.43 3.18 4.96
00:54 1 17.3 67 56,812 0.08 0 0 5.94 28.08 0 0.71 2.69 4.32
00:53 1 17.4 67 56,821 0.06 0 0.58 6.22 23.76 0 2.14 3.68 5.6
00:52 1 17.4 67 56,837 0.07 0 0 6.13 25.84 0 2.14 3.19 6.24
00:51 1 17.4 67 56,856 0.07 0 0 6.03 24.36 0 1.43 3.19 5.6
00:50 1 17.4 67 56,878 0.07 0 0 6.95 28 0 1.43 3.2 4.95
00:49 1 17.4 67 56,899 0.06 0 0 6.15 24.46 0 1.43 3.2 4.95
00:48 1 17.4 67 56,928 0.08 0 0 6.46 25.89 0 1.43 3.69 5.59
00:47 1 17.4 67 56,955 0.07 0 0 5.57 28.5 0 3.56 4.68 6.88
00:44 1 17.4 67 56,981 0.06 0 0 6.68 25.12 0 2.14 3.21 4.94
00:42 1 17.4 67 57,026 0.07 0 0 6.99 30.19 0 2.14 3.21 5.59
00:39 1 17.4 66 57,099 0.07 0 0 6.83 26.75 0 0 2.25 3.64